Time;durP1;ratioP1;P1;durP2;ratioP2;P2;SDS_P1;SDS_P2;PMS_P1;PMS_P2;Temp;Humidity;BMP_temperature;BMP_pressure;BME280_temperature;BME280_humidity;BME280_pressure;Samples;Min_cycle;Max_cycle;Signal;HPM_P1;HPM_P2
2023/08/25 00:00:40;;;;;;;24.27;18.58;;;;;;;20.93;84.02;97568.63;10323655;28;20432;-56
2023/08/25 00:05:40;;;;;;;23.08;17.63;;;;;;;21.08;84.05;97610.16;10323555;28;20415;-55
2023/08/25 00:10:39;;;;;;;18.55;16.58;;;;;;;20.66;84.32;97573.41;10323881;28;20057;-55
2023/08/25 00:15:42;;;;;;;20.77;16.60;;;;;;;20.77;84.84;97620.38;10323975;28;20037;-54
2023/08/25 00:20:41;;;;;;;18.95;16.92;;;;;;;20.75;84.70;97622.22;10322532;28;20112;-55
2023/08/25 00:25:44;;;;;;;23.17;17.77;;;;;;;20.70;84.48;97623.28;10324651;28;20045;-55
2023/08/25 00:30:43;;;;;;;24.60;18.58;;;;;;;20.58;84.76;97600.09;10323468;28;20148;-55
2023/08/25 00:35:42;;;;;;;21.23;18.67;;;;;;;20.64;85.22;97613.00;10323191;28;20025;-55
2023/08/25 00:40:41;;;;;;;22.42;19.80;;;;;;;20.65;85.56;97617.34;10322611;28;20484;-55
2023/08/25 00:45:41;;;;;;;22.63;20.13;;;;;;;20.61;85.48;97614.91;10323153;28;20483;-55
2023/08/25 00:50:40;;;;;;;22.67;19.70;;;;;;;20.53;85.60;97615.25;10323585;28;20504;-55
2023/08/25 00:55:39;;;;;;;24.65;20.45;;;;;;;20.52;85.85;97620.56;10325312;28;20060;-55
2023/08/25 01:00:39;;;;;;;26.52;20.80;;;;;;;20.50;86.04;97613.59;10330771;28;20025;-54
2023/08/25 01:05:39;;;;;;;26.33;21.45;;;;;;;20.46;86.51;97617.28;10331166;28;20072;-55
2023/08/25 01:11:10;;;;;;;24.55;21.85;;;;;;;20.43;86.72;97613.94;10330200;28;20060;-55
2023/08/25 01:16:16;;;;;;;24.20;19.77;;;;;;;20.44;87.03;97624.41;10330080;28;20520;-55
2023/08/25 01:21:15;;;;;;;27.70;22.02;;;;;;;20.39;87.55;97620.22;10329780;28;20108;-55
2023/08/25 01:26:15;;;;;;;23.85;19.95;;;;;;;19.54;87.84;97499.09;10329084;28;20065;-55
2023/08/25 01:31:14;;;;;;;23.38;20.98;;;;;;;20.38;87.65;97624.66;10329332;28;20125;-54
2023/08/25 01:36:15;;;;;;;23.65;20.30;;;;;;;20.37;87.65;97624.69;10327565;28;20039;-56
2023/08/25 01:41:23;;;;;;;24.23;19.70;;;;;;;20.40;87.22;97624.59;10327969;28;20068;-55
2023/08/25 01:46:23;;;;;;;27.50;20.48;;;;;;;20.37;87.40;97627.34;10328908;28;20069;-55
2023/08/25 01:51:23;;;;;;;24.95;20.95;;;;;;;20.33;87.30;97626.63;10326372;28;20061;-55
2023/08/25 01:56:23;;;;;;;27.25;23.13;;;;;;;20.27;87.17;97617.19;10328471;28;20061;-55
2023/08/25 02:01:22;;;;;;;24.63;21.75;;;;;;;20.28;87.52;97621.56;10328995;28;21101;-55
2023/08/25 02:06:21;;;;;;;25.65;21.38;;;;;;;20.25;87.70;97611.13;10328876;28;20059;-55
2023/08/25 02:11:20;;;;;;;24.83;22.15;;;;;;;20.20;88.38;97613.09;10327766;28;20018;-55
2023/08/25 02:16:19;;;;;;;24.88;19.88;;;;;;;20.05;88.91;97621.66;10328597;28;20430;-55
2023/08/25 02:21:18;;;;;;;27.17;21.70;;;;;;;19.76;90.41;97625.47;10327891;28;20114;-55
2023/08/25 02:26:17;;;;;;;28.08;22.92;;;;;;;19.41;91.31;97620.63;10327860;28;20025;-55
2023/08/25 02:31:16;;;;;;;28.33;24.50;;;;;;;19.24;92.35;97628.31;10327340;28;20033;-55
2023/08/25 02:36:14;;;;;;;29.02;23.92;;;;;;;19.29;91.94;97625.50;10327731;28;20069;-55
2023/08/25 02:41:14;;;;;;;29.50;23.52;;;;;;;19.33;91.42;97621.84;10326728;28;20108;-54
2023/08/25 02:46:13;;;;;;;27.27;23.55;;;;;;;19.18;91.44;97607.50;10327070;28;20073;-55
2023/08/25 02:51:12;;;;;;;26.58;21.52;;;;;;;19.30;90.90;97621.94;10326142;28;20106;-55
2023/08/25 02:56:10;;;;;;;28.27;22.77;;;;;;;19.27;90.93;97628.19;10326217;28;20032;-54
2023/08/25 03:01:11;;;;;;;26.15;22.73;;;;;;;19.25;90.87;97630.03;10325437;28;20108;-55
2023/08/25 03:06:10;;;;;;;28.77;24.60;;;;;;;19.19;90.89;97635.53;10326787;28;20060;-55
2023/08/25 03:11:09;;;;;;;29.58;24.42;;;;;;;19.14;91.28;97637.50;10324159;28;20026;-55
2023/08/25 03:16:08;;;;;;;29.40;24.90;;;;;;;19.11;91.18;97640.22;10325444;28;20120;-55
2023/08/25 03:21:07;;;;;;;32.65;24.98;;;;;;;19.13;91.34;97641.00;10325637;28;20045;-55
2023/08/25 03:26:06;;;;;;;30.10;23.85;;;;;;;19.14;91.18;97648.00;10325811;28;20156;-54
2023/08/25 03:31:05;;;;;;;30.65;25.13;;;;;;;19.15;91.33;97642.66;10325409;28;20507;-55
2023/08/25 03:36:04;;;;;;;29.77;24.58;;;;;;;19.17;91.51;97642.63;10324891;28;20490;-54
2023/08/25 03:41:03;;;;;;;31.15;25.35;;;;;;;19.18;91.80;97639.06;10324746;28;20468;-55
2023/08/25 03:46:03;;;;;;;31.17;26.80;;;;;;;19.24;91.72;97644.09;10325235;28;20572;-55
2023/08/25 03:51:02;;;;;;;31.17;24.45;;;;;;;19.17;92.31;97637.38;10324021;28;20057;-55
2023/08/25 03:56:01;;;;;;;33.17;24.98;;;;;;;19.18;92.32;97652.22;10323888;28;20037;-55
2023/08/25 04:01:00;;;;;;;34.15;25.58;;;;;;;19.30;91.96;97651.78;10324841;28;20033;-55
2023/08/25 04:05:59;;;;;;;33.28;24.60;;;;;;;19.35;91.81;97655.09;10324421;28;20117;-55
2023/08/25 04:10:58;;;;;;;32.97;25.42;;;;;;;19.26;91.87;97649.31;10324742;28;20065;-54
2023/08/25 04:15:58;;;;;;;31.25;25.45;;;;;;;19.43;91.65;97674.06;10323785;28;20021;-55
2023/08/25 04:20:57;;;;;;;29.35;26.13;;;;;;;19.39;91.41;97658.44;10323713;28;20128;-55
2023/08/25 04:25:56;;;;;;;34.00;25.77;;;;;;;19.61;91.22;97674.31;10323476;28;20104;-55
2023/08/25 04:30:56;;;;;;;36.65;25.25;;;;;;;19.69;90.99;97674.00;10326062;28;20468;-55
2023/08/25 04:35:55;;;;;;;34.03;24.73;;;;;;;19.61;90.58;97648.00;10332475;28;20104;-55
2023/08/25 04:40:54;;;;;;;31.88;23.33;;;;;;;19.92;90.30;97679.22;10328632;28;20065;-55
2023/08/25 04:45:53;;;;;;;37.03;24.90;;;;;;;19.75;90.10;97629.88;10328681;28;20034;-55
2023/08/25 04:50:52;;;;;;;36.85;26.33;;;;;;;20.15;89.91;97686.22;10328551;28;20033;-55
2023/08/25 04:55:51;;;;;;;33.55;26.25;;;;;;;20.16;89.27;97671.25;10330606;28;20023;-55
2023/08/25 05:00:50;;;;;;;30.42;25.58;;;;;;;20.31;88.65;97685.59;10329972;28;20109;-55
2023/08/25 05:05:49;;;;;;;30.17;22.00;;;;;;;20.32;87.06;97716.28;10330769;28;20105;-55
2023/08/25 05:10:48;;;;;;;26.77;22.75;;;;;;;20.31;86.88;97712.78;10330956;28;20136;-55
2023/08/25 05:15:47;;;;;;;28.63;21.73;;;;;;;20.45;86.85;97709.63;10329791;28;20031;-55
2023/08/25 05:20:46;;;;;;;30.05;22.80;;;;;;;20.66;86.72;97715.78;10328097;28;20044;-55
2023/08/25 05:25:45;;;;;;;31.63;22.08;;;;;;;20.76;86.17;97709.19;10330409;28;20041;-55
2023/08/25 05:30:50;;;;;;;26.52;21.30;;;;;;;20.91;86.27;97702.38;10329923;28;20037;-55
2023/08/25 05:35:50;;;;;;;27.58;23.23;;;;;;;21.17;85.73;97709.13;10329874;28;20060;-55
2023/08/25 05:40:49;;;;;;;27.20;21.40;;;;;;;21.30;85.08;97704.22;10329862;28;20452;-55
2023/08/25 05:45:47;;;;;;;31.67;22.80;;;;;;;21.51;84.63;97707.66;10327766;28;20725;-55
2023/08/25 05:50:46;;;;;;;23.90;20.55;;;;;;;21.70;84.36;97712.94;10325276;28;20040;-55
2023/08/25 05:55:47;;;;;;;26.80;21.00;;;;;;;21.90;83.11;97720.81;10327665;28;20028;-55
2023/08/25 06:00:46;;;;;;;26.08;21.25;;;;;;;21.94;82.98;97674.81;10323966;28;20076;-55
2023/08/25 06:05:51;;;;;;;24.00;21.30;;;;;;;22.29;82.54;97711.91;10324403;28;20580;-55
2023/08/25 06:10:53;;;;;;;25.95;20.85;;;;;;;22.55;80.68;97707.09;10324244;28;20116;-55
2023/08/25 06:15:52;;;;;;;25.45;21.15;;;;;;;22.62;79.13;97692.63;10327814;28;20096;-55
2023/08/25 06:20:51;;;;;;;23.70;20.20;;;;;;;22.75;79.13;97688.47;10326470;28;20104;-55
2023/08/25 06:25:50;;;;;;;22.95;18.70;;;;;;;22.91;78.71;97672.66;10325925;28;20071;-55
2023/08/25 06:30:50;;;;;;;25.25;20.30;;;;;;;23.18;76.50;97685.38;10326940;28;20033;-55
2023/08/25 06:35:49;;;;;;;24.20;19.83;;;;;;;23.28;76.09;97686.59;10326347;28;20104;-55
2023/08/25 06:40:48;;;;;;;23.10;19.10;;;;;;;23.40;75.09;97685.94;10327149;28;20147;-55
2023/08/25 06:45:47;;;;;;;27.15;18.60;;;;;;;23.70;73.94;97682.59;10324595;28;20072;-55
2023/08/25 06:50:47;;;;;;;22.00;19.50;;;;;;;23.93;73.15;97688.38;10321722;28;20590;-55
2023/08/25 06:55:46;;;;;;;23.10;18.52;;;;;;;23.88;71.62;97667.44;10325466;28;20059;-55
2023/08/25 07:00:45;;;;;;;20.58;18.38;;;;;;;23.51;70.07;97549.44;10325401;28;20112;-55
2023/08/25 07:05:44;;;;;;;53.95;21.85;;;;;;;24.53;70.22;97675.22;10326102;28;20032;-55
2023/08/25 07:10:46;;;;;;;20.35;18.25;;;;;;;24.83;68.26;97695.59;10325727;28;20041;-55
2023/08/25 07:15:45;;;;;;;21.13;18.85;;;;;;;24.97;67.80;97694.81;10324953;28;20048;-55
2023/08/25 07:20:44;;;;;;;20.23;18.10;;;;;;;25.21;67.17;97684.47;10320666;28;20028;-55
2023/08/25 07:25:43;;;;;;;21.27;19.05;;;;;;;25.46;66.51;97691.78;10323305;28;20064;-55
2023/08/25 07:30:42;;;;;;;21.13;18.13;;;;;;;25.80;64.83;97692.31;10323170;28;20037;-55
2023/08/25 07:35:41;;;;;;;20.13;18.02;;;;;;;26.11;63.14;97691.19;10318644;28;20061;-55
2023/08/25 07:40:41;;;;;;;20.05;17.20;;;;;;;26.24;61.05;97697.47;10319358;28;20417;-55
2023/08/25 07:45:40;;;;;;;19.85;16.58;;;;;;;26.21;60.54;97651.59;10323427;28;20457;-55
2023/08/25 07:50:39;;;;;;;17.50;15.63;;;;;;;26.52;59.26;97653.06;10323021;28;20501;-57
2023/08/25 07:55:39;;;;;;;21.83;15.82;;;;;;;26.77;56.41;97653.09;10320576;28;20088;-55
2023/08/25 08:00:38;;;;;;;16.80;13.18;;;;;;;27.27;56.04;97687.84;10317373;28;20053;-55
2023/08/25 08:05:38;;;;;;;18.80;13.73;;;;;;;27.40;54.43;97667.38;10320111;28;20034;-55
2023/08/25 08:10:37;;;;;;;13.60;10.52;;;;;;;27.82;51.56;97677.75;10319610;28;20499;-55
2023/08/25 08:15:37;;;;;;;12.70;9.32;;;;;;;27.88;48.13;97672.00;10321648;28;20113;-55
2023/08/25 08:20:37;;;;;;;14.40;11.75;;;;;;;28.19;47.18;97675.94;10323491;28;20064;-55
2023/08/25 08:25:36;;;;;;;20.40;17.25;;;;;;;28.40;47.13;97668.16;10322319;28;20061;-55
2023/08/25 08:30:35;;;;;;;13.68;9.85;;;;;;;28.72;46.63;97664.91;10319713;28;20455;-55
2023/08/25 08:35:35;;;;;;;12.32;9.60;;;;;;;28.91;46.16;97650.97;10322015;28;20060;-55
2023/08/25 08:40:35;;;;;;;13.77;8.48;;;;;;;29.04;43.80;97649.06;10319718;28;20162;-55
2023/08/25 08:45:36;;;;;;;12.02;8.70;;;;;;;29.24;43.74;97657.34;10319409;28;20603;-55
2023/08/25 08:50:35;;;;;;;10.40;8.57;;;;;;;29.43;43.53;97646.91;10328437;28;20068;-55
2023/08/25 08:55:35;;;;;;;9.70;7.85;;;;;;;29.56;41.70;97619.19;10320624;28;20100;-55
2023/08/25 09:00:34;;;;;;;8.63;7.72;;;;;;;29.65;42.00;97640.69;10318626;28;20124;-55
2023/08/25 09:05:36;;;;;;;11.50;8.32;;;;;;;29.73;40.81;97631.19;10316418;28;20120;-55
2023/08/25 09:10:35;;;;;;;9.63;8.20;;;;;;;29.68;41.38;97618.19;10318735;28;20064;-55
2023/08/25 09:15:34;;;;;;;12.60;8.13;;;;;;;30.06;40.99;97622.25;10319542;28;20029;-55
2023/08/25 09:20:40;;;;;;;12.18;8.63;;;;;;;29.90;41.24;97569.16;10322840;28;20026;-55
2023/08/25 09:25:42;;;;;;;11.27;8.88;;;;;;;30.29;42.02;97606.97;10327322;28;20061;-55
2023/08/25 09:30:44;;;;;;;12.10;9.18;;;;;;;30.34;41.37;97556.56;10320871;28;20120;-55
2023/08/25 09:35:44;;;;;;;10.30;8.63;;;;;;;30.53;41.51;97572.78;10318484;28;20113;-55
2023/08/25 09:40:46;;;;;;;11.65;8.55;;;;;;;30.86;40.82;97605.66;10326027;28;20823;-55
2023/08/25 09:45:45;;;;;;;11.10;8.43;;;;;;;31.10;39.87;97597.38;10325727;28;20120;-55
2023/08/25 09:50:44;;;;;;;10.32;8.35;;;;;;;31.15;39.25;97589.78;10323315;28;20117;-57
2023/08/25 09:55:44;;;;;;;10.15;7.97;;;;;;;31.22;38.89;97579.38;10326572;28;20508;-55
2023/08/25 10:00:43;;;;;;;9.10;8.00;;;;;;;31.34;39.78;97570.22;10324259;28;20069;-56
2023/08/25 10:05:44;;;;;;;10.90;8.02;;;;;;;31.06;38.41;97525.41;10322343;28;20052;-55
2023/08/25 10:10:44;;;;;;;9.52;8.25;;;;;;;31.20;38.35;97561.72;10323590;28;20128;-55
2023/08/25 10:15:45;;;;;;;9.90;8.10;;;;;;;30.85;38.14;97538.84;10327366;28;20060;-55
2023/08/25 10:20:45;;;;;;;9.68;7.80;;;;;;;31.01;37.18;97554.44;10324657;28;20072;-55
2023/08/25 10:25:44;;;;;;;10.10;7.53;;;;;;;30.83;36.18;97544.31;10322159;28;20104;-55
2023/08/25 10:30:44;;;;;;;13.18;7.90;;;;;;;31.14;36.91;97550.53;10320139;28;20108;-55
2023/08/25 10:35:47;;;;;;;11.27;7.93;;;;;;;31.39;37.48;97540.31;10313735;28;20100;-55
2023/08/25 10:40:51;;;;;;;9.70;8.70;;;;;;;31.67;37.36;97535.19;10311724;28;20108;-55
2023/08/25 10:45:51;;;;;;;11.05;8.65;;;;;;;31.69;36.83;97511.75;10324959;28;20113;-55
2023/08/25 10:51:06;;;;;;;12.55;8.15;;;;;;;31.97;36.94;97531.53;10324062;28;20576;-56
2023/08/25 10:56:33;;;;;;;9.00;7.53;;;;;;;32.22;35.65;97530.97;10326361;28;20045;-55
2023/08/25 11:01:38;;;;;;;11.25;7.75;;;;;;;32.13;35.89;97534.53;10323534;28;20179;-57
2023/08/25 11:06:39;;;;;;;10.38;7.68;;;;;;;31.97;35.50;97535.06;10320312;28;20124;-55
2023/08/25 11:11:41;;;;;;;9.10;7.13;;;;;;;32.09;35.48;97527.72;10324231;28;20064;-55
2023/08/25 11:16:41;;;;;;;10.35;7.38;;;;;;;32.36;34.41;97518.91;10323211;28;20511;-56
2023/08/25 11:21:40;;;;;;;11.05;6.93;;;;;;;32.62;35.10;97499.50;10323892;28;20029;-56
2023/08/25 11:26:39;;;;;;;10.75;7.10;;;;;;;32.91;34.12;97520.06;10323768;28;20064;-57
2023/08/25 11:31:38;;;;;;;11.43;7.60;;;;;;;32.76;34.56;97512.50;10324002;28;20128;-57
2023/08/25 11:36:37;;;;;;;10.65;8.15;;;;;;;32.93;34.22;97510.03;10324037;28;20029;-57
2023/08/25 11:41:38;;;;;;;11.77;7.25;;;;;;;32.34;33.70;97431.44;10321869;28;20059;-57
2023/08/25 11:46:38;;;;;;;10.38;7.38;;;;;;;32.87;34.17;97489.94;10320469;28;20109;-57
2023/08/25 11:51:37;;;;;;;10.07;7.68;;;;;;;33.20;34.49;97488.53;10322942;28;20503;-57
2023/08/25 11:56:36;;;;;;;10.45;7.32;;;;;;;33.49;33.57;97482.13;10322368;28;20580;-57
2023/08/25 12:01:35;;;;;;;11.82;7.30;;;;;;;33.47;32.99;97467.97;10321217;28;20056;-57
2023/08/25 12:06:35;;;;;;;12.75;7.80;;;;;;;33.62;32.60;97487.16;10318568;28;20101;-57
2023/08/25 12:11:35;;;;;;;10.90;7.78;;;;;;;33.33;33.10;97481.97;10323015;28;20064;-57
2023/08/25 12:16:33;;;;;;;11.88;7.40;;;;;;;33.50;32.96;97462.28;10321331;28;20057;-57
2023/08/25 12:21:36;;;;;;;9.38;7.50;;;;;;;33.47;32.04;97467.97;10321955;28;20037;-57
2023/08/25 12:26:35;;;;;;;10.48;7.03;;;;;;;33.37;32.20;97467.19;10320569;28;20109;-57
2023/08/25 12:31:34;;;;;;;8.77;6.68;;;;;;;33.46;32.33;97439.38;10323132;28;20029;-57
2023/08/25 12:36:35;;;;;;;9.55;7.50;;;;;;;33.34;31.51;97451.38;10319651;28;20043;-57
2023/08/25 12:41:34;;;;;;;9.05;6.65;;;;;;;33.57;31.96;97449.91;10319931;28;20060;-57
2023/08/25 12:46:33;;;;;;;9.23;7.25;;;;;;;33.85;31.51;97449.84;10324633;28;20133;-57
2023/08/25 12:51:32;;;;;;;10.13;7.05;;;;;;;33.87;31.28;97447.84;10322938;28;20043;-57
2023/08/25 12:56:31;;;;;;;9.30;6.53;;;;;;;33.46;32.49;97456.34;10327836;28;20091;-57
2023/08/25 13:01:30;;;;;;;9.73;7.38;;;;;;;33.30;33.32;97423.06;10330032;28;20027;-57
2023/08/25 13:06:29;;;;;;;9.13;6.63;;;;;;;33.34;31.45;97443.28;10329996;28;20072;-57
2023/08/25 13:11:28;;;;;;;11.15;7.55;;;;;;;33.45;32.79;97448.47;10325959;28;20069;-57
2023/08/25 13:16:27;;;;;;;9.25;7.53;;;;;;;33.49;32.83;97447.16;10330415;28;20104;-57
2023/08/25 13:21:26;;;;;;;11.05;7.43;;;;;;;33.72;32.67;97452.09;10328396;28;20457;-57
2023/08/25 13:26:25;;;;;;;11.88;7.60;;;;;;;33.74;32.00;97459.00;10328443;28;20531;-57
2023/08/25 13:31:24;;;;;;;11.85;7.20;;;;;;;33.62;32.25;97444.94;10329312;28;20488;-57
2023/08/25 13:36:23;;;;;;;14.10;7.55;;;;;;;33.51;32.56;97417.38;10328850;28;20109;-57
2023/08/25 13:41:22;;;;;;;9.48;7.68;;;;;;;33.35;32.91;97412.69;10328042;28;20077;-57
2023/08/25 13:46:21;;;;;;;8.93;6.88;;;;;;;33.83;32.12;97441.09;10326958;28;20064;-57
2023/08/25 13:51:20;;;;;;;11.27;8.07;;;;;;;33.91;32.43;97443.84;10325517;28;20030;-57
2023/08/25 13:56:19;;;;;;;11.27;7.32;;;;;;;33.78;32.42;97429.94;10328366;28;20025;-57
2023/08/25 14:01:21;;;;;;;11.98;8.20;;;;;;;33.81;32.88;97437.69;10326705;28;20072;-57
2023/08/25 14:06:20;;;;;;;10.85;7.35;;;;;;;33.82;32.92;97440.25;10323402;28;20125;-57
2023/08/25 14:11:20;;;;;;;10.75;8.07;;;;;;;33.48;33.82;97427.47;10324983;28;20037;-57
2023/08/25 14:16:19;;;;;;;10.10;8.05;;;;;;;33.21;33.92;97433.75;10324206;28;20060;-57
2023/08/25 14:21:18;;;;;;;11.65;8.30;;;;;;;33.17;34.48;97456.56;10323871;28;20025;-57
2023/08/25 14:26:17;;;;;;;9.32;7.93;;;;;;;33.15;34.38;97452.34;10325240;28;20956;-57
2023/08/25 14:31:16;;;;;;;12.40;8.43;;;;;;;32.74;34.02;97439.25;10324981;28;20793;-57
2023/08/25 14:36:15;;;;;;;10.98;7.95;;;;;;;32.77;34.23;97454.22;10324947;28;20458;-57
2023/08/25 14:41:14;;;;;;;12.23;8.75;;;;;;;32.74;34.51;97444.63;10323228;28;20056;-57
2023/08/25 14:46:13;;;;;;;14.25;8.35;;;;;;;32.80;33.93;97452.06;10325425;28;20133;-57
2023/08/25 14:51:14;;;;;;;12.55;8.05;;;;;;;32.18;33.53;97352.38;10325230;28;21465;-57
2023/08/25 14:56:13;;;;;;;12.18;7.50;;;;;;;32.79;34.67;97461.13;10322444;28;20053;-57
2023/08/25 15:01:12;;;;;;;13.75;8.45;;;;;;;32.72;34.93;97429.66;10315214;28;20116;-57
2023/08/25 15:06:11;;;;;;;10.18;8.40;;;;;;;32.36;35.17;97419.56;10321426;28;20793;-57
2023/08/25 15:11:10;;;;;;;11.73;9.02;;;;;;;32.59;35.23;97459.53;10315742;28;20041;-55
2023/08/25 15:16:09;;;;;;;15.18;13.18;;;;;;;32.30;35.31;97471.19;10318953;28;20061;-55
2023/08/25 15:21:08;;;;;;;12.82;9.50;;;;;;;32.24;35.95;97469.06;10322366;28;20061;-55
2023/08/25 15:26:07;;;;;;;13.95;10.70;;;;;;;31.98;36.24;97468.78;10315816;28;20052;-56
2023/08/25 15:31:11;;;;;;;24.67;22.15;;;;;;;31.83;36.82;97471.09;10318511;28;20040;-55
2023/08/25 15:36:12;;;;;;;14.60;10.07;;;;;;;31.53;36.43;97464.84;10319601;28;20560;-55
2023/08/25 15:41:12;;;;;;;22.20;18.00;;;;;;;31.47;36.23;97446.59;10319503;28;20113;-55
2023/08/25 15:46:12;;;;;;;17.45;11.50;;;;;;;31.66;36.57;97464.56;10313393;28;20120;-55
2023/08/25 15:51:11;;;;;;;15.50;10.07;;;;;;;31.60;36.42;97470.50;10314471;28;20137;-55
2023/08/25 15:56:12;;;;;;;30.30;22.75;;;;;;;31.39;37.21;97447.31;10319991;28;20029;-54
2023/08/25 16:01:12;;;;;;;18.02;13.85;;;;;;;31.52;37.51;97479.28;10323690;28;20112;-54
2023/08/25 16:06:11;;;;;;;13.77;11.32;;;;;;;31.24;38.33;97490.75;10321360;28;20117;-55
2023/08/25 16:11:10;;;;;;;16.10;11.35;;;;;;;30.92;38.62;97448.91;10322964;28;20036;-55
2023/08/25 16:16:09;;;;;;;39.15;20.15;;;;;;;31.11;38.69;97486.50;10321195;28;20061;-54
2023/08/25 16:21:08;;;;;;;27.98;18.98;;;;;;;31.04;39.10;97485.34;10322213;28;20075;-54
2023/08/25 16:26:08;;;;;;;18.05;14.07;;;;;;;30.98;39.25;97480.53;10322379;28;20251;-56
2023/08/25 16:31:09;;;;;;;20.00;14.30;;;;;;;31.11;38.74;97491.84;10331731;28;20068;-55
2023/08/25 16:36:08;;;;;;;16.20;12.80;;;;;;;31.04;39.32;97490.69;10327082;28;20120;-56
2023/08/25 16:41:07;;;;;;;13.75;11.68;;;;;;;30.92;39.77;97497.13;10330966;28;20088;-56
2023/08/25 16:46:06;;;;;;;87.18;78.82;;;;;;;30.81;40.23;97499.91;10328001;28;20109;-55
2023/08/25 16:51:05;;;;;;;14.60;12.80;;;;;;;30.85;40.35;97491.47;10328903;28;20084;-55
2023/08/25 16:56:04;;;;;;;21.60;12.70;;;;;;;30.75;39.88;97495.94;10330008;28;20105;-55
2023/08/25 17:01:04;;;;;;;16.33;12.82;;;;;;;30.62;40.96;97481.91;10330108;28;20112;-54
2023/08/25 17:06:03;;;;;;;16.17;12.60;;;;;;;30.38;42.20;97482.19;10325610;28;20112;-54
2023/08/25 17:11:03;;;;;;;18.85;13.43;;;;;;;30.19;42.72;97490.94;10329085;28;20199;-54
2023/08/25 17:16:08;;;;;;;15.25;12.30;;;;;;;29.89;43.48;97490.75;10328263;28;20053;-54
2023/08/25 17:21:07;;;;;;;17.45;13.95;;;;;;;29.65;44.27;97493.63;10326882;28;20708;-54
2023/08/25 17:26:07;;;;;;;17.88;13.25;;;;;;;29.43;44.55;97491.00;10325618;28;20136;-54
2023/08/25 17:31:08;;;;;;;20.17;13.80;;;;;;;29.08;44.96;97473.31;10328296;28;20065;-54
2023/08/25 17:36:14;;;;;;;17.38;13.80;;;;;;;29.07;45.65;97501.88;10328529;28;20092;-55
2023/08/25 17:41:13;;;;;;;18.25;13.40;;;;;;;28.49;46.32;97458.41;10326879;28;20112;-55
2023/08/25 17:46:12;;;;;;;15.25;13.10;;;;;;;28.55;46.62;97522.00;10326710;28;20120;-55
2023/08/25 17:51:11;;;;;;;15.93;12.23;;;;;;;28.27;47.37;97525.09;10328326;28;20143;-54
2023/08/25 17:56:10;;;;;;;15.23;13.20;;;;;;;27.98;47.75;97499.63;10327129;28;20464;-55
2023/08/25 18:01:09;;;;;;;15.95;13.15;;;;;;;28.03;48.18;97526.84;10325999;28;20033;-54
2023/08/25 18:06:08;;;;;;;20.52;13.90;;;;;;;27.66;48.89;97498.53;10326746;28;20041;-54
2023/08/25 18:11:07;;;;;;;17.23;13.63;;;;;;;27.64;49.22;97533.34;10327243;28;20578;-55
2023/08/25 18:16:06;;;;;;;16.25;12.55;;;;;;;26.77;50.12;97441.94;10326731;28;20101;-55
2023/08/25 18:21:05;;;;;;;17.42;12.93;;;;;;;27.19;50.45;97552.53;10324504;28;20121;-55
2023/08/25 18:26:04;;;;;;;20.88;14.43;;;;;;;27.05;52.04;97555.34;10327333;28;20022;-56
2023/08/25 18:31:03;;;;;;;19.67;14.57;;;;;;;26.89;52.65;97549.41;10322130;28;20041;-55
2023/08/25 18:36:03;;;;;;;17.77;14.68;;;;;;;25.55;53.64;97371.53;10325418;28;20064;-55
2023/08/25 18:41:03;;;;;;;19.48;14.80;;;;;;;26.68;54.42;97562.38;10325185;28;20053;-55
2023/08/25 18:46:02;;;;;;;17.27;15.18;;;;;;;26.54;53.69;97550.03;10326533;28;20068;-55
2023/08/25 18:51:01;;;;;;;18.00;14.93;;;;;;;26.58;53.94;97564.78;10321634;28;20037;-55
2023/08/25 18:56:00;;;;;;;16.02;14.35;;;;;;;26.42;53.92;97558.81;10323989;28;20057;-55
2023/08/25 19:00:59;;;;;;;19.25;14.65;;;;;;;26.29;53.75;97550.84;10323889;28;20049;-55
2023/08/25 19:06:03;;;;;;;19.20;14.88;;;;;;;26.23;54.43;97554.78;10325027;28;20400;-55
2023/08/25 19:11:02;;;;;;;17.80;14.63;;;;;;;26.19;54.82;97565.72;10322925;28;20080;-55
2023/08/25 19:16:03;;;;;;;17.08;14.45;;;;;;;26.03;54.97;97577.34;10324391;28;20698;-55
2023/08/25 19:21:02;;;;;;;18.58;14.55;;;;;;;25.93;56.04;97576.28;10323622;28;20088;-55
2023/08/25 19:26:07;;;;;;;22.88;15.55;;;;;;;25.60;57.08;97553.63;10320148;28;20150;-55
2023/08/25 19:31:06;;;;;;;18.58;15.32;;;;;;;25.58;57.79;97575.94;10322186;28;20513;-55
2023/08/25 19:36:05;;;;;;;23.08;15.38;;;;;;;25.53;58.41;97577.03;10320214;28;20113;-55
2023/08/25 19:41:06;;;;;;;17.65;14.77;;;;;;;24.81;58.29;97486.00;10322522;28;20084;-55
2023/08/25 19:46:05;;;;;;;21.52;15.23;;;;;;;25.36;58.75;97584.38;10318029;28;20120;-55
2023/08/25 19:51:04;;;;;;;20.52;16.27;;;;;;;25.21;60.61;97587.06;10318860;28;20091;-55
2023/08/25 19:56:04;;;;;;;22.80;17.10;;;;;;;24.83;60.88;97526.56;10324197;28;20103;-55
2023/08/25 20:01:03;;;;;;;26.70;16.70;;;;;;;24.99;61.13;97565.44;10322571;28;20475;-55
2023/08/25 20:06:04;;;;;;;22.10;14.93;;;;;;;25.15;62.02;97598.06;10319854;28;20407;-55
2023/08/25 20:11:04;;;;;;;19.45;16.45;;;;;;;24.79;62.35;97585.25;10321597;28;20602;-55
2023/08/25 20:16:03;;;;;;;24.35;17.20;;;;;;;24.45;62.90;97529.81;10319928;28;20468;-55
2023/08/25 20:21:03;;;;;;;22.83;17.25;;;;;;;24.79;63.26;97604.69;10319457;28;20128;-55
2023/08/25 20:26:02;;;;;;;23.05;17.42;;;;;;;24.57;63.62;97580.41;10318262;28;20049;-55
2023/08/25 20:31:01;;;;;;;24.20;18.75;;;;;;;24.63;63.94;97609.22;10320543;28;20040;-55
2023/08/25 20:36:02;;;;;;;27.30;20.35;;;;;;;24.55;64.34;97611.47;10320838;28;20025;-55
2023/08/25 20:41:03;;;;;;;25.63;19.90;;;;;;;24.25;64.32;97575.22;10321901;28;20159;-55
2023/08/25 20:46:12;;;;;;;23.50;18.35;;;;;;;24.47;64.42;97614.56;10321361;28;20136;-55
2023/08/25 20:51:11;;;;;;;27.70;19.00;;;;;;;24.46;64.91;97616.38;10322511;28;20076;-54
2023/08/25 20:56:10;;;;;;;24.42;17.83;;;;;;;24.23;65.08;97579.75;10320241;28;20034;-55
2023/08/25 21:01:09;;;;;;;19.98;17.13;;;;;;;24.39;65.42;97617.69;10322825;28;20484;-55
2023/08/25 21:06:08;;;;;;;20.02;16.42;;;;;;;24.36;65.41;97607.28;10321667;28;20199;-55
2023/08/25 21:11:07;;;;;;;22.77;15.90;;;;;;;24.10;64.95;97562.81;10319790;28;20065;-55
2023/08/25 21:16:06;;;;;;;27.05;18.08;;;;;;;24.26;65.74;97600.78;10325936;28;20100;-55
2023/08/25 21:21:06;;;;;;;20.20;17.00;;;;;;;24.12;67.49;97593.59;10329027;28;20108;-55
2023/08/25 21:26:05;;;;;;;25.02;17.50;;;;;;;23.95;68.22;97594.59;10327698;28;20128;-55
2023/08/25 21:31:04;;;;;;;28.75;20.05;;;;;;;23.74;69.39;97566.69;10328364;28;20028;-55
2023/08/25 21:36:03;;;;;;;29.60;20.17;;;;;;;23.88;69.22;97584.44;10327979;28;20031;-55
2023/08/25 21:41:02;;;;;;;26.05;19.17;;;;;;;23.75;69.00;97571.06;10326577;28;20061;-55
2023/08/25 21:46:01;;;;;;;25.90;19.27;;;;;;;23.75;70.24;97605.50;10326052;28;20038;-56
2023/08/25 21:51:00;;;;;;;22.65;18.10;;;;;;;23.68;70.01;97590.88;10326511;28;20029;-55
2023/08/25 21:56:00;;;;;;;23.48;18.00;;;;;;;23.59;70.57;97601.06;10325421;28;20036;-55
2023/08/25 22:01:07;;;;;;;22.92;18.88;;;;;;;23.49;70.42;97602.53;10326037;28;20061;-55
2023/08/25 22:06:06;;;;;;;30.52;21.83;;;;;;;23.40;70.76;97603.00;10323429;28;20145;-55
2023/08/25 22:11:14;;;;;;;22.85;19.00;;;;;;;22.90;72.47;97551.00;10327852;28;20025;-55
2023/08/25 22:16:13;;;;;;;24.83;19.80;;;;;;;23.11;73.07;97608.06;10326334;28;20112;-55
2023/08/25 22:21:12;;;;;;;23.05;19.92;;;;;;;23.12;72.47;97609.78;10323822;28;20037;-55
2023/08/25 22:26:10;;;;;;;25.85;19.00;;;;;;;22.93;72.35;97579.97;10325205;28;20026;-55
2023/08/25 22:31:09;;;;;;;20.08;17.95;;;;;;;22.92;73.57;97610.84;10324394;28;20032;-56
2023/08/25 22:36:08;;;;;;;20.70;17.15;;;;;;;22.87;73.94;97612.91;10325908;28;20909;-55
2023/08/25 22:41:07;;;;;;;23.45;17.48;;;;;;;22.60;73.89;97567.56;10325429;28;20114;-55
2023/08/25 22:46:06;;;;;;;23.60;18.02;;;;;;;22.76;74.29;97609.97;10326107;28;20033;-55